sensor_id;sensor_type;location;lat;lon;timestamp;temperature;humidity
65559;DHT22;52203;51.998;5.140;2022-07-29T00:00:06;11.15;118.99
65559;DHT22;52203;51.998;5.140;2022-07-29T00:02:32;11.11;118.99
65559;DHT22;52203;51.998;5.140;2022-07-29T00:04:58;11.08;118.99
65559;DHT22;52203;51.998;5.140;2022-07-29T00:07:23;10.98;118.99
65559;DHT22;52203;51.998;5.140;2022-07-29T00:09:49;10.99;118.99
65559;DHT22;52203;51.998;5.140;2022-07-29T00:12:14;10.98;118.99
65559;DHT22;52203;51.998;5.140;2022-07-29T00:14:39;10.96;118.99
65559;DHT22;52203;51.998;5.140;2022-07-29T00:17:05;10.92;118.99
65559;DHT22;52203;51.998;5.140;2022-07-29T00:19:30;10.86;118.99
65559;DHT22;52203;51.998;5.140;2022-07-29T00:21:55;10.81;118.99
65559;DHT22;52203;51.998;5.140;2022-07-29T00:24:21;10.77;118.99
65559;DHT22;52203;51.998;5.140;2022-07-29T00:26:46;10.75;118.99
65559;DHT22;52203;51.998;5.140;2022-07-29T00:29:11;10.77;118.99
65559;DHT22;52203;51.998;5.140;2022-07-29T00:31:37;10.73;118.99
65559;DHT22;52203;51.998;5.140;2022-07-29T00:34:02;10.73;118.99
65559;DHT22;52203;51.998;5.140;2022-07-29T00:36:28;10.65;118.99
65559;DHT22;52203;51.998;5.140;2022-07-29T00:38:53;10.58;118.99
65559;DHT22;52203;51.998;5.140;2022-07-29T00:41:19;10.57;118.99
65559;DHT22;52203;51.998;5.140;2022-07-29T00:43:44;10.58;118.99
65559;DHT22;52203;51.998;5.140;2022-07-29T00:46:10;10.51;118.99
65559;DHT22;52203;51.998;5.140;2022-07-29T00:48:36;10.53;118.99
65559;DHT22;52203;51.998;5.140;2022-07-29T00:51:02;10.52;118.99
65559;DHT22;52203;51.998;5.140;2022-07-29T00:53:28;10.50;118.99
65559;DHT22;52203;51.998;5.140;2022-07-29T00:55:54;10.49;118.99
65559;DHT22;52203;51.998;5.140;2022-07-29T00:58:20;10.49;118.99
65559;DHT22;52203;51.998;5.140;2022-07-29T01:00:46;10.45;118.99
65559;DHT22;52203;51.998;5.140;2022-07-29T01:03:11;10.48;118.99
65559;DHT22;52203;51.998;5.140;2022-07-29T01:05:37;10.40;118.99
65559;DHT22;52203;51.998;5.140;2022-07-29T01:08:02;10.37;118.99
65559;DHT22;52203;51.998;5.140;2022-07-29T01:10:28;10.37;118.99
65559;DHT22;52203;51.998;5.140;2022-07-29T01:12:55;10.37;118.99
65559;DHT22;52203;51.998;5.140;2022-07-29T01:15:22;10.35;118.99
65559;DHT22;52203;51.998;5.140;2022-07-29T01:17:57;10.33;118.99
65559;DHT22;52203;51.998;5.140;2022-07-29T01:30:55;10.29;118.99
65559;DHT22;52203;51.998;5.140;2022-07-29T01:33:21;10.31;118.99
65559;DHT22;52203;51.998;5.140;2022-07-29T01:36:13;10.33;118.99
65559;DHT22;52203;51.998;5.140;2022-07-29T01:38:41;10.28;118.99
65559;DHT22;52203;51.998;5.140;2022-07-29T01:41:10;10.27;118.99
65559;DHT22;52203;51.998;5.140;2022-07-29T01:43:44;10.22;118.99
65559;DHT22;52203;51.998;5.140;2022-07-29T01:46:14;10.20;118.99
65559;DHT22;52203;51.998;5.140;2022-07-29T01:48:47;10.16;118.99
65559;DHT22;52203;51.998;5.140;2022-07-29T01:51:18;10.16;118.99
65559;DHT22;52203;51.998;5.140;2022-07-29T01:53:53;10.16;118.99
65559;DHT22;52203;51.998;5.140;2022-07-29T01:56:20;10.12;118.99
65559;DHT22;52203;51.998;5.140;2022-07-29T01:58:46;10.11;118.99
65559;DHT22;52203;51.998;5.140;2022-07-29T02:01:12;10.15;118.99
65559;DHT22;52203;51.998;5.140;2022-07-29T02:03:38;10.11;118.99
65559;DHT22;52203;51.998;5.140;2022-07-29T02:06:04;10.12;118.99
65559;DHT22;52203;51.998;5.140;2022-07-29T02:08:31;10.11;118.99
65559;DHT22;52203;51.998;5.140;2022-07-29T02:10:57;10.12;118.99
65559;DHT22;52203;51.998;5.140;2022-07-29T02:13:23;10.10;118.99
65559;DHT22;52203;51.998;5.140;2022-07-29T02:15:49;10.08;118.99
65559;DHT22;52203;51.998;5.140;2022-07-29T02:18:16;10.09;118.99
65559;DHT22;52203;51.998;5.140;2022-07-29T02:20:44;10.08;118.99
65559;DHT22;52203;51.998;5.140;2022-07-29T02:23:10;10.09;118.99
65559;DHT22;52203;51.998;5.140;2022-07-29T02:25:37;10.07;118.99
65559;DHT22;52203;51.998;5.140;2022-07-29T02:28:02;10.04;118.99
65559;DHT22;52203;51.998;5.140;2022-07-29T02:30:28;9.99;118.99
65559;DHT22;52203;51.998;5.140;2022-07-29T02:32:55;9.94;118.99
65559;DHT22;52203;51.998;5.140;2022-07-29T02:35:21;9.93;118.99
65559;DHT22;52203;51.998;5.140;2022-07-29T02:37:47;9.93;118.99
65559;DHT22;52203;51.998;5.140;2022-07-29T02:40:36;9.93;118.99
65559;DHT22;52203;51.998;5.140;2022-07-29T02:43:03;9.95;118.99
65559;DHT22;52203;51.998;5.140;2022-07-29T02:45:30;9.93;118.99
65559;DHT22;52203;51.998;5.140;2022-07-29T02:47:56;9.93;118.99
65559;DHT22;52203;51.998;5.140;2022-07-29T02:51:06;9.97;118.99
65559;DHT22;52203;51.998;5.140;2022-07-29T02:53:16;9.98;118.99
65559;DHT22;52203;51.998;5.140;2022-07-29T02:58:19;10.07;118.99
65559;DHT22;52203;51.998;5.140;2022-07-29T03:00:47;10.03;118.99
65559;DHT22;52203;51.998;5.140;2022-07-29T03:03:15;10.03;118.99
65559;DHT22;52203;51.998;5.140;2022-07-29T03:05:41;10.06;118.99
65559;DHT22;52203;51.998;5.140;2022-07-29T03:08:07;10.05;118.99
65559;DHT22;52203;51.998;5.140;2022-07-29T03:10:34;10.08;118.99
65559;DHT22;52203;51.998;5.140;2022-07-29T03:12:59;10.08;118.99
65559;DHT22;52203;51.998;5.140;2022-07-29T03:15:25;10.14;118.99
65559;DHT22;52203;51.998;5.140;2022-07-29T03:17:51;10.11;118.99
65559;DHT22;52203;51.998;5.140;2022-07-29T03:20:17;10.15;118.99
65559;DHT22;52203;51.998;5.140;2022-07-29T03:22:43;10.18;118.99
65559;DHT22;52203;51.998;5.140;2022-07-29T03:25:12;10.21;118.99
65559;DHT22;52203;51.998;5.140;2022-07-29T03:27:38;10.20;118.99
65559;DHT22;52203;51.998;5.140;2022-07-29T03:30:04;10.16;118.99
65559;DHT22;52203;51.998;5.140;2022-07-29T03:32:29;10.18;118.99
65559;DHT22;52203;51.998;5.140;2022-07-29T03:34:55;10.21;118.99
65559;DHT22;52203;51.998;5.140;2022-07-29T03:37:20;10.21;118.99
65559;DHT22;52203;51.998;5.140;2022-07-29T03:39:45;10.16;118.99
65559;DHT22;52203;51.998;5.140;2022-07-29T03:42:13;10.10;118.99
65559;DHT22;52203;51.998;5.140;2022-07-29T03:44:40;10.09;118.99
65559;DHT22;52203;51.998;5.140;2022-07-29T03:47:07;9.99;118.99
65559;DHT22;52203;51.998;5.140;2022-07-29T03:49:33;10.01;118.99
65559;DHT22;52203;51.998;5.140;2022-07-29T03:52:01;10.04;118.99
65559;DHT22;52203;51.998;5.140;2022-07-29T03:54:26;10.04;118.99
65559;DHT22;52203;51.998;5.140;2022-07-29T03:56:52;10.00;118.99
65559;DHT22;52203;51.998;5.140;2022-07-29T03:59:18;10.03;118.99
65559;DHT22;52203;51.998;5.140;2022-07-29T04:01:44;10.04;118.99
65559;DHT22;52203;51.998;5.140;2022-07-29T04:04:10;10.01;118.99
65559;DHT22;52203;51.998;5.140;2022-07-29T04:06:37;9.99;118.99
65559;DHT22;52203;51.998;5.140;2022-07-29T04:09:03;9.98;118.99
65559;DHT22;52203;51.998;5.140;2022-07-29T04:11:28;10.04;118.99
65559;DHT22;52203;51.998;5.140;2022-07-29T04:13:53;10.03;118.99
65559;DHT22;52203;51.998;5.140;2022-07-29T04:16:19;9.97;118.99
65559;DHT22;52203;51.998;5.140;2022-07-29T04:18:44;9.94;118.99
65559;DHT22;52203;51.998;5.140;2022-07-29T04:21:09;9.92;118.99
65559;DHT22;52203;51.998;5.140;2022-07-29T04:23:35;9.93;118.99
65559;DHT22;52203;51.998;5.140;2022-07-29T04:26:00;9.83;118.99
65559;DHT22;52203;51.998;5.140;2022-07-29T04:28:26;9.84;118.99
65559;DHT22;52203;51.998;5.140;2022-07-29T04:30:51;9.81;118.99
65559;DHT22;52203;51.998;5.140;2022-07-29T04:33:16;9.75;118.99
65559;DHT22;52203;51.998;5.140;2022-07-29T04:35:42;9.72;118.99
65559;DHT22;52203;51.998;5.140;2022-07-29T04:38:07;9.74;118.99
65559;DHT22;52203;51.998;5.140;2022-07-29T04:40:33;9.68;118.99
65559;DHT22;52203;51.998;5.140;2022-07-29T04:42:59;9.69;118.99
65559;DHT22;52203;51.998;5.140;2022-07-29T04:45:24;9.68;118.99
65559;DHT22;52203;51.998;5.140;2022-07-29T04:47:50;9.67;118.99
65559;DHT22;52203;51.998;5.140;2022-07-29T04:50:15;9.68;118.99
65559;DHT22;52203;51.998;5.140;2022-07-29T04:52:40;9.66;118.99
65559;DHT22;52203;51.998;5.140;2022-07-29T04:55:06;9.67;118.99
65559;DHT22;52203;51.998;5.140;2022-07-29T04:57:31;9.72;118.99
65559;DHT22;52203;51.998;5.140;2022-07-29T04:59:57;9.75;118.99
65559;DHT22;52203;51.998;5.140;2022-07-29T05:02:22;9.77;118.99
65559;DHT22;52203;51.998;5.140;2022-07-29T05:04:48;9.80;118.99
65559;DHT22;52203;51.998;5.140;2022-07-29T05:07:14;9.80;118.99
65559;DHT22;52203;51.998;5.140;2022-07-29T05:09:39;9.81;118.99
65559;DHT22;52203;51.998;5.140;2022-07-29T05:12:05;9.82;118.99
65559;DHT22;52203;51.998;5.140;2022-07-29T05:14:30;9.88;118.99
65559;DHT22;52203;51.998;5.140;2022-07-29T05:16:56;9.95;118.99
65559;DHT22;52203;51.998;5.140;2022-07-29T05:19:22;10.04;118.99
65559;DHT22;52203;51.998;5.140;2022-07-29T05:21:47;10.09;118.99
65559;DHT22;52203;51.998;5.140;2022-07-29T05:24:13;10.15;118.99
65559;DHT22;52203;51.998;5.140;2022-07-29T05:26:38;10.22;118.99
65559;DHT22;52203;51.998;5.140;2022-07-29T05:29:04;10.27;118.99
65559;DHT22;52203;51.998;5.140;2022-07-29T05:31:29;10.34;118.99
65559;DHT22;52203;51.998;5.140;2022-07-29T05:33:54;10.37;118.99
65559;DHT22;52203;51.998;5.140;2022-07-29T05:36:20;10.41;118.99
65559;DHT22;52203;51.998;5.140;2022-07-29T05:38:45;10.45;118.99
65559;DHT22;52203;51.998;5.140;2022-07-29T05:41:11;10.52;118.99
65559;DHT22;52203;51.998;5.140;2022-07-29T05:43:36;10.55;118.99
65559;DHT22;52203;51.998;5.140;2022-07-29T05:46:02;10.65;118.99
65559;DHT22;52203;51.998;5.140;2022-07-29T05:48:27;10.75;118.99
65559;DHT22;52203;51.998;5.140;2022-07-29T05:50:52;10.84;118.99
65559;DHT22;52203;51.998;5.140;2022-07-29T05:53:18;10.89;118.99
65559;DHT22;52203;51.998;5.140;2022-07-29T05:55:43;10.93;118.99
65559;DHT22;52203;51.998;5.140;2022-07-29T05:58:09;11.00;118.99
65559;DHT22;52203;51.998;5.140;2022-07-29T06:00:34;11.04;118.99
65559;DHT22;52203;51.998;5.140;2022-07-29T06:02:59;11.08;118.99
65559;DHT22;52203;51.998;5.140;2022-07-29T06:05:25;11.05;118.99
65559;DHT22;52203;51.998;5.140;2022-07-29T06:07:50;11.14;118.99
65559;DHT22;52203;51.998;5.140;2022-07-29T06:10:15;11.15;118.99
65559;DHT22;52203;51.998;5.140;2022-07-29T06:12:41;11.09;118.99
65559;DHT22;52203;51.998;5.140;2022-07-29T06:15:06;11.13;118.99
65559;DHT22;52203;51.998;5.140;2022-07-29T06:17:32;11.14;118.99
65559;DHT22;52203;51.998;5.140;2022-07-29T06:19:57;11.15;118.99
65559;DHT22;52203;51.998;5.140;2022-07-29T06:22:22;11.11;118.99
65559;DHT22;52203;51.998;5.140;2022-07-29T06:24:48;11.07;118.99
65559;DHT22;52203;51.998;5.140;2022-07-29T06:27:14;11.05;118.99
65559;DHT22;52203;51.998;5.140;2022-07-29T06:29:39;10.99;118.99
65559;DHT22;52203;51.998;5.140;2022-07-29T06:32:05;11.02;118.99
65559;DHT22;52203;51.998;5.140;2022-07-29T06:34:30;11.04;118.99
65559;DHT22;52203;51.998;5.140;2022-07-29T06:36:55;11.09;118.99
65559;DHT22;52203;51.998;5.140;2022-07-29T06:39:21;11.15;118.99
65559;DHT22;52203;51.998;5.140;2022-07-29T06:41:47;11.20;118.99
65559;DHT22;52203;51.998;5.140;2022-07-29T06:44:14;11.29;118.99
65559;DHT22;52203;51.998;5.140;2022-07-29T06:46:39;11.37;118.99
65559;DHT22;52203;51.998;5.140;2022-07-29T06:49:05;11.41;118.99
65559;DHT22;52203;51.998;5.140;2022-07-29T06:51:30;11.47;118.99
65559;DHT22;52203;51.998;5.140;2022-07-29T06:53:55;11.54;118.99
65559;DHT22;52203;51.998;5.140;2022-07-29T06:56:22;11.66;118.99
65559;DHT22;52203;51.998;5.140;2022-07-29T06:58:47;11.77;118.99
65559;DHT22;52203;51.998;5.140;2022-07-29T07:01:13;11.89;118.99
65559;DHT22;52203;51.998;5.140;2022-07-29T07:03:38;11.98;118.99
65559;DHT22;52203;51.998;5.140;2022-07-29T07:06:04;11.99;118.99
65559;DHT22;52203;51.998;5.140;2022-07-29T07:08:29;11.98;118.99
65559;DHT22;52203;51.998;5.140;2022-07-29T07:10:54;12.06;118.99
65559;DHT22;52203;51.998;5.140;2022-07-29T07:13:21;12.08;118.99
65559;DHT22;52203;51.998;5.140;2022-07-29T07:15:46;12.23;118.99
65559;DHT22;52203;51.998;5.140;2022-07-29T07:18:15;12.34;118.99
65559;DHT22;52203;51.998;5.140;2022-07-29T07:20:41;12.42;118.99
65559;DHT22;52203;51.998;5.140;2022-07-29T07:23:06;12.51;118.99
65559;DHT22;52203;51.998;5.140;2022-07-29T07:25:32;12.61;118.99
65559;DHT22;52203;51.998;5.140;2022-07-29T07:27:57;12.69;118.99
65559;DHT22;52203;51.998;5.140;2022-07-29T07:30:23;12.80;118.99
65559;DHT22;52203;51.998;5.140;2022-07-29T07:32:48;12.89;118.99
65559;DHT22;52203;51.998;5.140;2022-07-29T07:35:14;12.96;118.99
65559;DHT22;52203;51.998;5.140;2022-07-29T07:37:39;13.07;118.99
65559;DHT22;52203;51.998;5.140;2022-07-29T07:40:05;13.09;118.99
65559;DHT22;52203;51.998;5.140;2022-07-29T07:42:31;13.15;118.99
65559;DHT22;52203;51.998;5.140;2022-07-29T07:44:56;13.24;118.99
65559;DHT22;52203;51.998;5.140;2022-07-29T07:47:22;13.47;118.99
65559;DHT22;52203;51.998;5.140;2022-07-29T07:49:49;13.66;118.99
65559;DHT22;52203;51.998;5.140;2022-07-29T07:52:18;13.71;118.99
65559;DHT22;52203;51.998;5.140;2022-07-29T07:54:44;13.89;118.99
65559;DHT22;52203;51.998;5.140;2022-07-29T07:57:13;13.95;118.99
65559;DHT22;52203;51.998;5.140;2022-07-29T07:59:38;13.99;118.99
65559;DHT22;52203;51.998;5.140;2022-07-29T08:02:04;14.07;118.99
65559;DHT22;52203;51.998;5.140;2022-07-29T08:04:29;14.01;118.99
65559;DHT22;52203;51.998;5.140;2022-07-29T08:06:55;13.99;118.99
65559;DHT22;52203;51.998;5.140;2022-07-29T08:09:21;13.91;118.99
65559;DHT22;52203;51.998;5.140;2022-07-29T08:11:46;13.88;118.99
65559;DHT22;52203;51.998;5.140;2022-07-29T08:14:12;13.83;118.99
65559;DHT22;52203;51.998;5.140;2022-07-29T08:16:38;13.85;118.99
65559;DHT22;52203;51.998;5.140;2022-07-29T08:19:04;13.96;118.99
65559;DHT22;52203;51.998;5.140;2022-07-29T08:21:30;14.14;118.99
65559;DHT22;52203;51.998;5.140;2022-07-29T08:23:55;14.39;118.99
65559;DHT22;52203;51.998;5.140;2022-07-29T08:26:41;14.68;118.99
65559;DHT22;52203;51.998;5.140;2022-07-29T08:29:07;14.82;118.99
65559;DHT22;52203;51.998;5.140;2022-07-29T08:31:32;15.13;118.99
65559;DHT22;52203;51.998;5.140;2022-07-29T08:33:58;15.42;118.99
65559;DHT22;52203;51.998;5.140;2022-07-29T08:36:25;15.61;118.99
65559;DHT22;52203;51.998;5.140;2022-07-29T08:38:50;15.95;118.99
65559;DHT22;52203;51.998;5.140;2022-07-29T08:41:15;16.00;118.99
65559;DHT22;52203;51.998;5.140;2022-07-29T08:43:43;16.48;118.99
65559;DHT22;52203;51.998;5.140;2022-07-29T08:46:09;16.66;118.99
65559;DHT22;52203;51.998;5.140;2022-07-29T08:48:35;17.05;118.99
65559;DHT22;52203;51.998;5.140;2022-07-29T08:51:01;17.33;118.99
65559;DHT22;52203;51.998;5.140;2022-07-29T08:53:26;17.30;118.99
65559;DHT22;52203;51.998;5.140;2022-07-29T08:55:53;17.48;118.99
65559;DHT22;52203;51.998;5.140;2022-07-29T08:58:19;17.33;118.99
65559;DHT22;52203;51.998;5.140;2022-07-29T09:00:46;17.58;118.99
65559;DHT22;52203;51.998;5.140;2022-07-29T09:03:16;17.70;118.99
65559;DHT22;52203;51.998;5.140;2022-07-29T09:05:43;17.90;118.99
65559;DHT22;52203;51.998;5.140;2022-07-29T09:08:10;17.61;118.99
65559;DHT22;52203;51.998;5.140;2022-07-29T09:10:36;17.75;118.99
65559;DHT22;52203;51.998;5.140;2022-07-29T09:13:01;18.15;118.99
65559;DHT22;52203;51.998;5.140;2022-07-29T09:15:27;18.38;118.99
65559;DHT22;52203;51.998;5.140;2022-07-29T09:17:52;18.55;118.99
65559;DHT22;52203;51.998;5.140;2022-07-29T09:20:18;18.72;118.99
65559;DHT22;52203;51.998;5.140;2022-07-29T09:22:44;18.47;118.99
65559;DHT22;52203;51.998;5.140;2022-07-29T09:25:14;18.83;118.99
65559;DHT22;52203;51.998;5.140;2022-07-29T09:27:39;18.89;118.99
65559;DHT22;52203;51.998;5.140;2022-07-29T09:30:06;18.94;118.99
65559;DHT22;52203;51.998;5.140;2022-07-29T09:32:32;19.12;118.99
65559;DHT22;52203;51.998;5.140;2022-07-29T09:35:13;19.18;118.99
65559;DHT22;52203;51.998;5.140;2022-07-29T09:37:39;19.47;118.99
65559;DHT22;52203;51.998;5.140;2022-07-29T09:40:17;19.47;118.99
65559;DHT22;52203;51.998;5.140;2022-07-29T09:42:43;19.82;118.99
65559;DHT22;52203;51.998;5.140;2022-07-29T09:45:09;19.86;118.99
65559;DHT22;52203;51.998;5.140;2022-07-29T09:47:44;19.99;118.99
65559;DHT22;52203;51.998;5.140;2022-07-29T09:50:10;19.83;118.99
65559;DHT22;52203;51.998;5.140;2022-07-29T09:52:44;20.45;118.99
65559;DHT22;52203;51.998;5.140;2022-07-29T09:55:10;20.49;118.99
65559;DHT22;52203;51.998;5.140;2022-07-29T09:57:35;20.39;118.99
65559;DHT22;52203;51.998;5.140;2022-07-29T10:02:33;20.54;118.99
65559;DHT22;52203;51.998;5.140;2022-07-29T10:04:59;20.58;118.99
65559;DHT22;52203;51.998;5.140;2022-07-29T10:07:25;20.76;118.99
65559;DHT22;52203;51.998;5.140;2022-07-29T10:09:56;21.40;118.99
65559;DHT22;52203;51.998;5.140;2022-07-29T10:12:22;21.79;118.99
65559;DHT22;52203;51.998;5.140;2022-07-29T10:14:48;21.50;118.99
65559;DHT22;52203;51.998;5.140;2022-07-29T10:17:13;21.28;118.99
65559;DHT22;52203;51.998;5.140;2022-07-29T10:19:40;20.44;118.99
65559;DHT22;52203;51.998;5.140;2022-07-29T10:22:08;20.77;118.99
65559;DHT22;52203;51.998;5.140;2022-07-29T10:24:33;21.27;118.99
65559;DHT22;52203;51.998;5.140;2022-07-29T10:27:01;21.21;118.99
65559;DHT22;52203;51.998;5.140;2022-07-29T10:29:26;21.53;118.99
65559;DHT22;52203;51.998;5.140;2022-07-29T10:42:19;22.64;118.99
65559;DHT22;52203;51.998;5.140;2022-07-29T10:44:45;22.48;118.99
65559;DHT22;52203;51.998;5.140;2022-07-29T10:49:55;21.72;118.99
65559;DHT22;52203;51.998;5.140;2022-07-29T10:52:22;22.79;118.99
65559;DHT22;52203;51.998;5.140;2022-07-29T10:54:49;21.85;118.99
65559;DHT22;52203;51.998;5.140;2022-07-29T10:57:29;22.66;118.99
65559;DHT22;52203;51.998;5.140;2022-07-29T11:04:58;22.72;118.99
65559;DHT22;52203;51.998;5.140;2022-07-29T11:07:27;22.75;118.99
65559;DHT22;52203;51.998;5.140;2022-07-29T11:15:13;22.92;118.99
65559;DHT22;52203;51.998;5.140;2022-07-29T11:23:01;23.42;118.99
65559;DHT22;52203;51.998;5.140;2022-07-29T11:25:26;23.46;118.99
65559;DHT22;52203;51.998;5.140;2022-07-29T11:27:55;23.58;118.99
65559;DHT22;52203;51.998;5.140;2022-07-29T11:33:33;24.09;118.99
65559;DHT22;52203;51.998;5.140;2022-07-29T11:38:36;23.31;118.99
65559;DHT22;52203;51.998;5.140;2022-07-29T11:43:48;22.16;118.99
65559;DHT22;52203;51.998;5.140;2022-07-29T11:46:13;23.51;118.99
65559;DHT22;52203;51.998;5.140;2022-07-29T11:48:42;24.05;118.99
65559;DHT22;52203;51.998;5.140;2022-07-29T11:51:09;24.36;118.99
65559;DHT22;52203;51.998;5.140;2022-07-29T11:53:35;23.90;118.99
65559;DHT22;52203;51.998;5.140;2022-07-29T11:56:01;24.65;118.99
65559;DHT22;52203;51.998;5.140;2022-07-29T11:58:26;24.76;118.99
65559;DHT22;52203;51.998;5.140;2022-07-29T12:00:53;24.94;118.99
65559;DHT22;52203;51.998;5.140;2022-07-29T12:03:25;24.72;118.99
65559;DHT22;52203;51.998;5.140;2022-07-29T12:05:51;24.76;118.99
65559;DHT22;52203;51.998;5.140;2022-07-29T12:08:20;24.76;118.99
65559;DHT22;52203;51.998;5.140;2022-07-29T12:10:47;25.34;118.99
65559;DHT22;52203;51.998;5.140;2022-07-29T12:13:13;25.23;118.99
65559;DHT22;52203;51.998;5.140;2022-07-29T12:15:40;25.90;118.99
65559;DHT22;52203;51.998;5.140;2022-07-29T12:18:13;26.17;118.99
65559;DHT22;52203;51.998;5.140;2022-07-29T12:20:39;25.29;118.99
65559;DHT22;52203;51.998;5.140;2022-07-29T12:23:05;24.94;118.99
65559;DHT22;52203;51.998;5.140;2022-07-29T12:25:32;25.29;118.99
65559;DHT22;52203;51.998;5.140;2022-07-29T12:28:01;25.19;118.99
65559;DHT22;52203;51.998;5.140;2022-07-29T12:30:37;25.74;118.99
65559;DHT22;52203;51.998;5.140;2022-07-29T12:35:39;25.08;118.99
65559;DHT22;52203;51.998;5.140;2022-07-29T12:38:05;25.14;118.99
65559;DHT22;52203;51.998;5.140;2022-07-29T12:40:30;24.88;118.99
65559;DHT22;52203;51.998;5.140;2022-07-29T12:43:15;23.70;118.99
65559;DHT22;52203;51.998;5.140;2022-07-29T12:45:50;24.03;118.99
65559;DHT22;52203;51.998;5.140;2022-07-29T12:48:16;24.73;118.99
65559;DHT22;52203;51.998;5.140;2022-07-29T12:50:56;25.45;118.99
65559;DHT22;52203;51.998;5.140;2022-07-29T12:53:22;25.05;118.99
65559;DHT22;52203;51.998;5.140;2022-07-29T12:55:48;26.06;118.99
65559;DHT22;52203;51.998;5.140;2022-07-29T13:01:11;26.26;118.99
65559;DHT22;52203;51.998;5.140;2022-07-29T13:03:56;25.92;118.99
65559;DHT22;52203;51.998;5.140;2022-07-29T13:09:04;26.12;118.99
65559;DHT22;52203;51.998;5.140;2022-07-29T13:11:30;24.68;118.99
65559;DHT22;52203;51.998;5.140;2022-07-29T13:13:56;25.77;118.99
65559;DHT22;52203;51.998;5.140;2022-07-29T13:16:21;25.51;118.99
65559;DHT22;52203;51.998;5.140;2022-07-29T13:18:46;26.20;118.99
65559;DHT22;52203;51.998;5.140;2022-07-29T13:21:15;26.34;118.99
65559;DHT22;52203;51.998;5.140;2022-07-29T13:23:41;26.39;118.99
65559;DHT22;52203;51.998;5.140;2022-07-29T13:26:10;26.26;118.99
65559;DHT22;52203;51.998;5.140;2022-07-29T13:28:36;26.19;118.99
65559;DHT22;52203;51.998;5.140;2022-07-29T13:31:02;26.41;118.99
65559;DHT22;52203;51.998;5.140;2022-07-29T13:33:27;26.53;118.99
65559;DHT22;52203;51.998;5.140;2022-07-29T13:35:53;25.19;118.99
65559;DHT22;52203;51.998;5.140;2022-07-29T13:38:18;24.94;118.99
65559;DHT22;52203;51.998;5.140;2022-07-29T13:40:43;24.64;118.99
65559;DHT22;52203;51.998;5.140;2022-07-29T13:43:09;25.03;118.99
65559;DHT22;52203;51.998;5.140;2022-07-29T13:45:35;25.71;118.99
65559;DHT22;52203;51.998;5.140;2022-07-29T13:48:00;25.78;118.99
65559;DHT22;52203;51.998;5.140;2022-07-29T13:50:26;26.04;118.99
65559;DHT22;52203;51.998;5.140;2022-07-29T13:52:52;26.05;118.99
65559;DHT22;52203;51.998;5.140;2022-07-29T13:55:18;25.92;118.99
65559;DHT22;52203;51.998;5.140;2022-07-29T13:57:43;24.38;118.99
65559;DHT22;52203;51.998;5.140;2022-07-29T14:00:08;25.02;118.99
65559;DHT22;52203;51.998;5.140;2022-07-29T14:02:34;24.29;118.99
65559;DHT22;52203;51.998;5.140;2022-07-29T14:05:00;24.54;118.99
65559;DHT22;52203;51.998;5.140;2022-07-29T14:07:25;24.65;118.99
65559;DHT22;52203;51.998;5.140;2022-07-29T14:09:51;24.97;118.99
65559;DHT22;52203;51.998;5.140;2022-07-29T14:12:16;24.14;118.99
65559;DHT22;52203;51.998;5.140;2022-07-29T14:14:41;24.73;118.99
65559;DHT22;52203;51.998;5.140;2022-07-29T14:17:07;25.23;118.99
65559;DHT22;52203;51.998;5.140;2022-07-29T14:19:32;25.34;118.99
65559;DHT22;52203;51.998;5.140;2022-07-29T14:22:01;25.77;118.99
65559;DHT22;52203;51.998;5.140;2022-07-29T14:24:26;25.06;118.99
65559;DHT22;52203;51.998;5.140;2022-07-29T14:26:52;25.56;118.99
65559;DHT22;52203;51.998;5.140;2022-07-29T14:29:17;25.94;118.99
65559;DHT22;52203;51.998;5.140;2022-07-29T14:31:42;26.08;118.99
65559;DHT22;52203;51.998;5.140;2022-07-29T14:34:08;25.37;118.99
65559;DHT22;52203;51.998;5.140;2022-07-29T14:36:34;25.29;118.99
65559;DHT22;52203;51.998;5.140;2022-07-29T14:38:59;25.58;118.99
65559;DHT22;52203;51.998;5.140;2022-07-29T14:41:25;24.47;118.99
65559;DHT22;52203;51.998;5.140;2022-07-29T14:43:53;25.48;118.99
65559;DHT22;52203;51.998;5.140;2022-07-29T14:46:18;23.79;118.99
65559;DHT22;52203;51.998;5.140;2022-07-29T14:48:44;23.81;118.99
65559;DHT22;52203;51.998;5.140;2022-07-29T14:51:09;23.55;118.99
65559;DHT22;52203;51.998;5.140;2022-07-29T14:53:35;23.64;118.99
65559;DHT22;52203;51.998;5.140;2022-07-29T14:56:01;23.81;118.99
65559;DHT22;52203;51.998;5.140;2022-07-29T14:58:26;24.44;118.99
65559;DHT22;52203;51.998;5.140;2022-07-29T15:00:51;25.21;118.99
65559;DHT22;52203;51.998;5.140;2022-07-29T15:03:17;24.18;118.99
65559;DHT22;52203;51.998;5.140;2022-07-29T15:05:42;23.46;118.99
65559;DHT22;52203;51.998;5.140;2022-07-29T15:08:08;23.94;118.99
65559;DHT22;52203;51.998;5.140;2022-07-29T15:10:33;24.99;118.99
65559;DHT22;52203;51.998;5.140;2022-07-29T15:12:59;25.28;118.99
65559;DHT22;52203;51.998;5.140;2022-07-29T15:15:24;25.76;118.99
65559;DHT22;52203;51.998;5.140;2022-07-29T15:17:50;25.03;118.99
65559;DHT22;52203;51.998;5.140;2022-07-29T15:20:15;25.49;118.99
65559;DHT22;52203;51.998;5.140;2022-07-29T15:22:41;25.51;118.99
65559;DHT22;52203;51.998;5.140;2022-07-29T15:25:07;25.22;118.99
65559;DHT22;52203;51.998;5.140;2022-07-29T15:27:33;25.50;118.99
65559;DHT22;52203;51.998;5.140;2022-07-29T15:29:58;25.24;118.99
65559;DHT22;52203;51.998;5.140;2022-07-29T15:32:23;25.15;118.99
65559;DHT22;52203;51.998;5.140;2022-07-29T15:34:49;24.55;118.99
65559;DHT22;52203;51.998;5.140;2022-07-29T15:37:14;24.02;118.99
65559;DHT22;52203;51.998;5.140;2022-07-29T15:39:39;24.04;118.99
65559;DHT22;52203;51.998;5.140;2022-07-29T15:42:05;24.58;118.99
65559;DHT22;52203;51.998;5.140;2022-07-29T15:44:30;23.70;118.99
65559;DHT22;52203;51.998;5.140;2022-07-29T15:46:56;23.77;118.99
65559;DHT22;52203;51.998;5.140;2022-07-29T15:49:28;23.28;118.99
65559;DHT22;52203;51.998;5.140;2022-07-29T15:51:59;23.37;118.99
65559;DHT22;52203;51.998;5.140;2022-07-29T15:54:25;23.57;118.99
65559;DHT22;52203;51.998;5.140;2022-07-29T15:56:51;23.41;118.99
65559;DHT22;52203;51.998;5.140;2022-07-29T15:59:16;22.34;118.99
65559;DHT22;52203;51.998;5.140;2022-07-29T16:01:42;22.48;118.99
65559;DHT22;52203;51.998;5.140;2022-07-29T16:04:07;22.88;118.99
65559;DHT22;52203;51.998;5.140;2022-07-29T16:06:32;22.91;118.99
65559;DHT22;52203;51.998;5.140;2022-07-29T16:08:58;22.54;118.99
65559;DHT22;52203;51.998;5.140;2022-07-29T16:11:24;22.94;118.99
65559;DHT22;52203;51.998;5.140;2022-07-29T16:13:52;22.55;118.99